sensor_id;sensor_type;location;lat;lon;timestamp;temperature;humidity
10245;DHT22;5167;52.164;10.530;2022-12-29T00:01:58;11.80;28.20
10245;DHT22;5167;52.164;10.530;2022-12-29T00:04:24;11.80;28.50
10245;DHT22;5167;52.164;10.530;2022-12-29T00:06:52;11.80;28.00
10245;DHT22;5167;52.164;10.530;2022-12-29T00:09:17;11.70;27.80
10245;DHT22;5167;52.164;10.530;2022-12-29T00:11:43;11.70;28.20
10245;DHT22;5167;52.164;10.530;2022-12-29T00:14:10;11.70;28.30
10245;DHT22;5167;52.164;10.530;2022-12-29T00:16:55;11.70;28.70
10245;DHT22;5167;52.164;10.530;2022-12-29T00:19:21;11.70;28.60
10245;DHT22;5167;52.164;10.530;2022-12-29T00:22:05;11.80;28.60
10245;DHT22;5167;52.164;10.530;2022-12-29T00:24:49;11.70;28.30
10245;DHT22;5167;52.164;10.530;2022-12-29T00:27:31;11.90;28.90
10245;DHT22;5167;52.164;10.530;2022-12-29T00:30:18;11.80;28.70
10245;DHT22;5167;52.164;10.530;2022-12-29T00:33:17;11.80;28.30
10245;DHT22;5167;52.164;10.530;2022-12-29T00:36:15;11.90;28.40
10245;DHT22;5167;52.164;10.530;2022-12-29T00:38:45;11.90;28.20
10245;DHT22;5167;52.164;10.530;2022-12-29T00:41:31;11.90;27.90
10245;DHT22;5167;52.164;10.530;2022-12-29T00:44:15;12.00;27.40
10245;DHT22;5167;52.164;10.530;2022-12-29T00:46:42;12.00;27.60
10245;DHT22;5167;52.164;10.530;2022-12-29T00:49:10;11.90;28.00
10245;DHT22;5167;52.164;10.530;2022-12-29T00:51:56;12.00;28.10
10245;DHT22;5167;52.164;10.530;2022-12-29T00:54:22;11.90;28.60
10245;DHT22;5167;52.164;10.530;2022-12-29T00:56:49;12.00;27.90
10245;DHT22;5167;52.164;10.530;2022-12-29T00:59:14;12.00;28.10
10245;DHT22;5167;52.164;10.530;2022-12-29T01:01:41;12.10;28.10
10245;DHT22;5167;52.164;10.530;2022-12-29T01:04:06;12.10;28.00
10245;DHT22;5167;52.164;10.530;2022-12-29T01:06:33;12.10;28.10
10245;DHT22;5167;52.164;10.530;2022-12-29T01:08:58;12.10;28.50
10245;DHT22;5167;52.164;10.530;2022-12-29T01:11:42;12.20;28.70
10245;DHT22;5167;52.164;10.530;2022-12-29T01:14:08;12.00;28.20
10245;DHT22;5167;52.164;10.530;2022-12-29T01:16:34;12.10;29.50
10245;DHT22;5167;52.164;10.530;2022-12-29T01:18:59;12.00;29.20
10245;DHT22;5167;52.164;10.530;2022-12-29T01:21:25;12.00;29.20
10245;DHT22;5167;52.164;10.530;2022-12-29T01:23:51;12.20;29.30
10245;DHT22;5167;52.164;10.530;2022-12-29T01:26:17;11.90;29.80
10245;DHT22;5167;52.164;10.530;2022-12-29T01:28:43;12.00;29.80
10245;DHT22;5167;52.164;10.530;2022-12-29T01:31:10;12.00;30.00
10245;DHT22;5167;52.164;10.530;2022-12-29T01:33:36;11.90;30.60
10245;DHT22;5167;52.164;10.530;2022-12-29T01:36:06;12.00;30.90
10245;DHT22;5167;52.164;10.530;2022-12-29T01:38:33;12.00;31.70
10245;DHT22;5167;52.164;10.530;2022-12-29T01:40:59;12.00;31.70
10245;DHT22;5167;52.164;10.530;2022-12-29T01:43:58;12.00;31.80
10245;DHT22;5167;52.164;10.530;2022-12-29T01:46:41;12.00;31.90
10245;DHT22;5167;52.164;10.530;2022-12-29T01:56:51;12.00;32.60
10245;DHT22;5167;52.164;10.530;2022-12-29T01:59:22;12.00;31.80
10245;DHT22;5167;52.164;10.530;2022-12-29T02:01:50;12.10;32.10
10245;DHT22;5167;52.164;10.530;2022-12-29T02:04:16;12.10;31.90
10245;DHT22;5167;52.164;10.530;2022-12-29T02:07:06;12.10;31.80
10245;DHT22;5167;52.164;10.530;2022-12-29T02:09:33;12.00;32.10
10245;DHT22;5167;52.164;10.530;2022-12-29T02:11:59;12.10;32.30
10245;DHT22;5167;52.164;10.530;2022-12-29T02:14:25;12.10;32.00
10245;DHT22;5167;52.164;10.530;2022-12-29T02:22:29;12.10;32.60
10245;DHT22;5167;52.164;10.530;2022-12-29T02:25:36;12.10;33.10
10245;DHT22;5167;52.164;10.530;2022-12-29T02:30:36;12.10;32.70
10245;DHT22;5167;52.164;10.530;2022-12-29T02:35:55;12.10;34.30
10245;DHT22;5167;52.164;10.530;2022-12-29T02:38:45;12.10;33.60
10245;DHT22;5167;52.164;10.530;2022-12-29T02:41:16;12.10;34.10
10245;DHT22;5167;52.164;10.530;2022-12-29T02:44:11;12.20;33.30
10245;DHT22;5167;52.164;10.530;2022-12-29T02:46:53;12.20;32.90
10245;DHT22;5167;52.164;10.530;2022-12-29T02:49:42;12.20;32.50
10245;DHT22;5167;52.164;10.530;2022-12-29T02:52:16;12.20;32.80
10245;DHT22;5167;52.164;10.530;2022-12-29T02:54:43;12.20;32.50
10245;DHT22;5167;52.164;10.530;2022-12-29T02:59:37;12.30;32.40
10245;DHT22;5167;52.164;10.530;2022-12-29T03:10:14;12.40;32.70
10245;DHT22;5167;52.164;10.530;2022-12-29T03:13:11;12.50;32.70
10245;DHT22;5167;52.164;10.530;2022-12-29T03:21:28;12.50;32.80
10245;DHT22;5167;52.164;10.530;2022-12-29T03:24:17;12.50;33.00
10245;DHT22;5167;52.164;10.530;2022-12-29T03:26:45;12.50;33.00
10245;DHT22;5167;52.164;10.530;2022-12-29T03:29:12;12.60;33.60
10245;DHT22;5167;52.164;10.530;2022-12-29T03:31:40;12.70;33.70
10245;DHT22;5167;52.164;10.530;2022-12-29T03:34:07;12.70;33.20
10245;DHT22;5167;52.164;10.530;2022-12-29T03:36:40;12.70;33.00
10245;DHT22;5167;52.164;10.530;2022-12-29T03:39:12;12.70;33.20
10245;DHT22;5167;52.164;10.530;2022-12-29T03:41:41;12.80;33.10
10245;DHT22;5167;52.164;10.530;2022-12-29T03:44:07;12.80;32.90
10245;DHT22;5167;52.164;10.530;2022-12-29T03:46:33;12.80;32.50
10245;DHT22;5167;52.164;10.530;2022-12-29T03:48:59;12.80;32.80
10245;DHT22;5167;52.164;10.530;2022-12-29T03:51:24;12.80;33.50
10245;DHT22;5167;52.164;10.530;2022-12-29T03:53:50;12.80;33.60
10245;DHT22;5167;52.164;10.530;2022-12-29T03:56:15;12.80;33.60
10245;DHT22;5167;52.164;10.530;2022-12-29T03:58:41;12.80;33.80
10245;DHT22;5167;52.164;10.530;2022-12-29T04:01:06;12.80;33.70
10245;DHT22;5167;52.164;10.530;2022-12-29T04:03:32;12.90;33.90
10245;DHT22;5167;52.164;10.530;2022-12-29T04:05:57;12.90;33.90
10245;DHT22;5167;52.164;10.530;2022-12-29T04:08:23;12.80;33.80
10245;DHT22;5167;52.164;10.530;2022-12-29T04:10:49;12.90;33.70
10245;DHT22;5167;52.164;10.530;2022-12-29T04:13:15;12.90;33.40
10245;DHT22;5167;52.164;10.530;2022-12-29T04:15:41;13.00;33.70
10245;DHT22;5167;52.164;10.530;2022-12-29T04:18:07;12.90;33.40
10245;DHT22;5167;52.164;10.530;2022-12-29T04:20:33;13.00;33.00
10245;DHT22;5167;52.164;10.530;2022-12-29T04:23:17;13.00;32.60
10245;DHT22;5167;52.164;10.530;2022-12-29T04:25:45;12.90;32.90
10245;DHT22;5167;52.164;10.530;2022-12-29T04:28:11;12.90;33.10
10245;DHT22;5167;52.164;10.530;2022-12-29T04:30:37;13.00;32.20
10245;DHT22;5167;52.164;10.530;2022-12-29T04:33:02;12.90;32.30
10245;DHT22;5167;52.164;10.530;2022-12-29T04:35:28;12.90;32.40
10245;DHT22;5167;52.164;10.530;2022-12-29T04:37:53;13.00;31.70
10245;DHT22;5167;52.164;10.530;2022-12-29T04:40:19;12.90;31.10
10245;DHT22;5167;52.164;10.530;2022-12-29T04:42:44;12.90;31.50
10245;DHT22;5167;52.164;10.530;2022-12-29T04:45:10;13.00;31.30
10245;DHT22;5167;52.164;10.530;2022-12-29T04:47:36;13.00;31.30
10245;DHT22;5167;52.164;10.530;2022-12-29T04:50:01;13.00;30.90
10245;DHT22;5167;52.164;10.530;2022-12-29T04:52:27;13.00;30.20
10245;DHT22;5167;52.164;10.530;2022-12-29T04:54:53;13.00;30.30
10245;DHT22;5167;52.164;10.530;2022-12-29T04:57:18;13.00;30.20
10245;DHT22;5167;52.164;10.530;2022-12-29T04:59:43;13.00;30.40
10245;DHT22;5167;52.164;10.530;2022-12-29T05:02:09;13.00;29.80
10245;DHT22;5167;52.164;10.530;2022-12-29T05:04:34;13.20;29.80
10245;DHT22;5167;52.164;10.530;2022-12-29T05:07:00;13.10;29.40
10245;DHT22;5167;52.164;10.530;2022-12-29T05:09:25;13.00;29.20
10245;DHT22;5167;52.164;10.530;2022-12-29T05:11:51;13.00;29.10
10245;DHT22;5167;52.164;10.530;2022-12-29T05:14:16;13.00;29.10
10245;DHT22;5167;52.164;10.530;2022-12-29T05:16:42;13.00;29.30
10245;DHT22;5167;52.164;10.530;2022-12-29T05:19:07;13.00;29.00
10245;DHT22;5167;52.164;10.530;2022-12-29T05:21:33;13.10;29.30
10245;DHT22;5167;52.164;10.530;2022-12-29T05:23:58;13.00;29.30
10245;DHT22;5167;52.164;10.530;2022-12-29T05:26:24;13.00;28.70
10245;DHT22;5167;52.164;10.530;2022-12-29T05:28:49;13.00;28.80
10245;DHT22;5167;52.164;10.530;2022-12-29T05:31:15;13.00;28.60
10245;DHT22;5167;52.164;10.530;2022-12-29T05:33:40;13.20;28.50
10245;DHT22;5167;52.164;10.530;2022-12-29T05:36:07;13.00;28.50
10245;DHT22;5167;52.164;10.530;2022-12-29T05:38:34;13.00;27.90
10245;DHT22;5167;52.164;10.530;2022-12-29T05:40:59;13.00;28.10
10245;DHT22;5167;52.164;10.530;2022-12-29T05:43:25;13.10;28.40
10245;DHT22;5167;52.164;10.530;2022-12-29T05:45:52;13.10;28.10
10245;DHT22;5167;52.164;10.530;2022-12-29T05:48:18;13.20;28.20
10245;DHT22;5167;52.164;10.530;2022-12-29T05:50:47;13.10;28.20
10245;DHT22;5167;52.164;10.530;2022-12-29T05:53:13;13.10;28.60
10245;DHT22;5167;52.164;10.530;2022-12-29T05:55:38;13.10;28.30
10245;DHT22;5167;52.164;10.530;2022-12-29T05:58:04;13.10;28.10
10245;DHT22;5167;52.164;10.530;2022-12-29T06:00:29;13.10;28.90
10245;DHT22;5167;52.164;10.530;2022-12-29T06:02:55;13.10;29.10
10245;DHT22;5167;52.164;10.530;2022-12-29T06:05:20;13.10;30.50
10245;DHT22;5167;52.164;10.530;2022-12-29T06:07:46;13.10;30.90
10245;DHT22;5167;52.164;10.530;2022-12-29T06:10:12;13.10;29.90
10245;DHT22;5167;52.164;10.530;2022-12-29T06:12:37;13.10;30.40
10245;DHT22;5167;52.164;10.530;2022-12-29T06:15:03;13.20;30.40
10245;DHT22;5167;52.164;10.530;2022-12-29T06:17:28;13.20;30.80
10245;DHT22;5167;52.164;10.530;2022-12-29T06:19:54;13.20;31.20
10245;DHT22;5167;52.164;10.530;2022-12-29T06:22:19;13.20;31.40
10245;DHT22;5167;52.164;10.530;2022-12-29T06:24:45;13.20;31.40
10245;DHT22;5167;52.164;10.530;2022-12-29T06:27:10;13.10;31.20
10245;DHT22;5167;52.164;10.530;2022-12-29T06:29:36;13.10;32.70
10245;DHT22;5167;52.164;10.530;2022-12-29T06:32:03;13.10;33.00
10245;DHT22;5167;52.164;10.530;2022-12-29T06:34:28;13.20;33.10
10245;DHT22;5167;52.164;10.530;2022-12-29T06:36:54;13.20;32.70
10245;DHT22;5167;52.164;10.530;2022-12-29T06:39:20;13.20;33.10
10245;DHT22;5167;52.164;10.530;2022-12-29T06:41:45;13.20;33.00
10245;DHT22;5167;52.164;10.530;2022-12-29T06:44:10;13.20;32.70
10245;DHT22;5167;52.164;10.530;2022-12-29T06:46:36;13.20;32.60
10245;DHT22;5167;52.164;10.530;2022-12-29T06:49:02;13.20;32.20
10245;DHT22;5167;52.164;10.530;2022-12-29T06:51:27;13.20;32.40
10245;DHT22;5167;52.164;10.530;2022-12-29T06:53:53;13.10;32.50
10245;DHT22;5167;52.164;10.530;2022-12-29T06:56:18;13.20;32.50
10245;DHT22;5167;52.164;10.530;2022-12-29T06:58:43;13.30;32.90
10245;DHT22;5167;52.164;10.530;2022-12-29T07:01:09;13.30;32.40
10245;DHT22;5167;52.164;10.530;2022-12-29T07:03:35;13.30;32.40
10245;DHT22;5167;52.164;10.530;2022-12-29T07:06:00;13.30;32.10
10245;DHT22;5167;52.164;10.530;2022-12-29T07:08:26;13.30;31.90
10245;DHT22;5167;52.164;10.530;2022-12-29T07:10:51;13.40;31.90
10245;DHT22;5167;52.164;10.530;2022-12-29T07:13:17;13.40;31.60
10245;DHT22;5167;52.164;10.530;2022-12-29T07:15:42;13.40;31.40
10245;DHT22;5167;52.164;10.530;2022-12-29T07:18:08;13.40;30.60
10245;DHT22;5167;52.164;10.530;2022-12-29T07:20:33;13.40;30.10
10245;DHT22;5167;52.164;10.530;2022-12-29T07:22:59;13.40;30.50
10245;DHT22;5167;52.164;10.530;2022-12-29T07:25:24;13.50;30.50
10245;DHT22;5167;52.164;10.530;2022-12-29T07:27:50;13.50;30.60
10245;DHT22;5167;52.164;10.530;2022-12-29T07:30:16;13.50;30.20
10245;DHT22;5167;52.164;10.530;2022-12-29T07:32:41;13.50;29.80
10245;DHT22;5167;52.164;10.530;2022-12-29T07:35:07;13.50;29.60
10245;DHT22;5167;52.164;10.530;2022-12-29T07:37:33;13.50;29.40
10245;DHT22;5167;52.164;10.530;2022-12-29T07:40:00;13.60;29.20
10245;DHT22;5167;52.164;10.530;2022-12-29T07:42:26;13.50;28.30
10245;DHT22;5167;52.164;10.530;2022-12-29T07:44:51;13.50;28.50
10245;DHT22;5167;52.164;10.530;2022-12-29T07:47:17;13.50;28.80
10245;DHT22;5167;52.164;10.530;2022-12-29T07:49:42;13.50;28.60
10245;DHT22;5167;52.164;10.530;2022-12-29T07:52:08;13.50;28.50
10245;DHT22;5167;52.164;10.530;2022-12-29T07:54:33;13.50;28.50
10245;DHT22;5167;52.164;10.530;2022-12-29T07:56:58;13.60;28.40
10245;DHT22;5167;52.164;10.530;2022-12-29T07:59:25;13.50;28.20
10245;DHT22;5167;52.164;10.530;2022-12-29T08:01:51;13.50;28.20
10245;DHT22;5167;52.164;10.530;2022-12-29T08:04:17;13.50;28.40
10245;DHT22;5167;52.164;10.530;2022-12-29T08:06:42;13.50;28.70
10245;DHT22;5167;52.164;10.530;2022-12-29T08:09:10;13.50;26.80
10245;DHT22;5167;52.164;10.530;2022-12-29T08:11:36;13.50;28.30
10245;DHT22;5167;52.164;10.530;2022-12-29T08:14:02;13.50;28.70
10245;DHT22;5167;52.164;10.530;2022-12-29T08:16:28;13.50;28.70
10245;DHT22;5167;52.164;10.530;2022-12-29T08:18:53;13.80;28.70
10245;DHT22;5167;52.164;10.530;2022-12-29T08:21:19;13.60;28.30
10245;DHT22;5167;52.164;10.530;2022-12-29T08:23:44;13.50;28.90
10245;DHT22;5167;52.164;10.530;2022-12-29T08:26:10;13.50;29.30
10245;DHT22;5167;52.164;10.530;2022-12-29T08:28:36;13.50;29.60
10245;DHT22;5167;52.164;10.530;2022-12-29T08:31:02;13.40;29.40
10245;DHT22;5167;52.164;10.530;2022-12-29T08:33:28;13.50;29.60
10245;DHT22;5167;52.164;10.530;2022-12-29T08:36:01;13.50;29.70
10245;DHT22;5167;52.164;10.530;2022-12-29T08:38:28;13.60;29.50
10245;DHT22;5167;52.164;10.530;2022-12-29T08:40:54;13.70;29.20
10245;DHT22;5167;52.164;10.530;2022-12-29T08:43:20;13.70;28.70
10245;DHT22;5167;52.164;10.530;2022-12-29T08:45:46;13.70;28.90
10245;DHT22;5167;52.164;10.530;2022-12-29T08:48:11;13.70;28.50
10245;DHT22;5167;52.164;10.530;2022-12-29T08:50:36;13.70;28.50
10245;DHT22;5167;52.164;10.530;2022-12-29T08:53:02;13.70;29.00
10245;DHT22;5167;52.164;10.530;2022-12-29T08:55:28;13.70;28.70
10245;DHT22;5167;52.164;10.530;2022-12-29T08:57:53;13.70;28.80
10245;DHT22;5167;52.164;10.530;2022-12-29T09:00:19;13.80;29.10
10245;DHT22;5167;52.164;10.530;2022-12-29T09:02:45;13.70;29.20
10245;DHT22;5167;52.164;10.530;2022-12-29T09:05:11;13.70;29.60
10245;DHT22;5167;52.164;10.530;2022-12-29T09:07:36;13.70;29.10
10245;DHT22;5167;52.164;10.530;2022-12-29T09:10:02;13.70;29.40
10245;DHT22;5167;52.164;10.530;2022-12-29T09:12:28;13.80;30.10
10245;DHT22;5167;52.164;10.530;2022-12-29T09:14:54;13.80;30.00
10245;DHT22;5167;52.164;10.530;2022-12-29T09:17:19;13.90;29.50
10245;DHT22;5167;52.164;10.530;2022-12-29T09:20:04;13.80;29.40
10245;DHT22;5167;52.164;10.530;2022-12-29T09:22:30;13.80;29.80
10245;DHT22;5167;52.164;10.530;2022-12-29T09:24:55;13.90;30.60
10245;DHT22;5167;52.164;10.530;2022-12-29T09:27:21;13.90;32.00
10245;DHT22;5167;52.164;10.530;2022-12-29T09:29:46;13.80;32.80
10245;DHT22;5167;52.164;10.530;2022-12-29T09:32:12;13.80;33.30
10245;DHT22;5167;52.164;10.530;2022-12-29T09:34:37;13.80;34.00
10245;DHT22;5167;52.164;10.530;2022-12-29T09:37:03;13.80;33.70
10245;DHT22;5167;52.164;10.530;2022-12-29T09:39:28;13.70;33.60
10245;DHT22;5167;52.164;10.530;2022-12-29T09:47:19;13.60;34.30
10245;DHT22;5167;52.164;10.530;2022-12-29T09:49:56;13.60;34.20
10245;DHT22;5167;52.164;10.530;2022-12-29T09:52:27;13.50;34.30
10245;DHT22;5167;52.164;10.530;2022-12-29T09:55:04;13.50;34.10
10245;DHT22;5167;52.164;10.530;2022-12-29T09:58:02;13.50;32.80
10245;DHT22;5167;52.164;10.530;2022-12-29T10:00:37;13.60;33.00
10245;DHT22;5167;52.164;10.530;2022-12-29T10:03:19;13.50;33.20
10245;DHT22;5167;52.164;10.530;2022-12-29T10:17:01;13.50;30.80
10245;DHT22;5167;52.164;10.530;2022-12-29T10:22:48;13.50;29.50
10245;DHT22;5167;52.164;10.530;2022-12-29T10:25:22;13.50;28.50
10245;DHT22;5167;52.164;10.530;2022-12-29T10:27:49;13.40;28.70
10245;DHT22;5167;52.164;10.530;2022-12-29T10:30:15;13.60;28.20
10245;DHT22;5167;52.164;10.530;2022-12-29T10:32:52;13.40;27.90
10245;DHT22;5167;52.164;10.530;2022-12-29T10:35:22;13.50;28.90
10245;DHT22;5167;52.164;10.530;2022-12-29T10:38:00;13.60;28.20
10245;DHT22;5167;52.164;10.530;2022-12-29T10:43:21;13.80;28.70
10245;DHT22;5167;52.164;10.530;2022-12-29T10:45:49;13.90;28.10
10245;DHT22;5167;52.164;10.530;2022-12-29T10:48:28;14.00;27.90
10245;DHT22;5167;52.164;10.530;2022-12-29T10:50:57;14.20;26.30
10245;DHT22;5167;52.164;10.530;2022-12-29T10:53:27;14.00;26.40
10245;DHT22;5167;52.164;10.530;2022-12-29T10:55:55;14.00;25.40
10245;DHT22;5167;52.164;10.530;2022-12-29T10:58:22;14.00;25.30
10245;DHT22;5167;52.164;10.530;2022-12-29T11:00:53;14.10;25.70
10245;DHT22;5167;52.164;10.530;2022-12-29T11:03:43;14.00;24.90
10245;DHT22;5167;52.164;10.530;2022-12-29T11:08:45;14.00;23.40
10245;DHT22;5167;52.164;10.530;2022-12-29T11:11:23;14.00;23.20
10245;DHT22;5167;52.164;10.530;2022-12-29T11:13:55;14.00;22.10
10245;DHT22;5167;52.164;10.530;2022-12-29T11:16:34;14.00;22.40
10245;DHT22;5167;52.164;10.530;2022-12-29T11:19:00;14.10;22.50
10245;DHT22;5167;52.164;10.530;2022-12-29T11:21:35;14.10;21.40
10245;DHT22;5167;52.164;10.530;2022-12-29T11:24:22;14.10;20.20
10245;DHT22;5167;52.164;10.530;2022-12-29T11:26:52;14.10;19.30
10245;DHT22;5167;52.164;10.530;2022-12-29T11:29:28;14.10;18.10
10245;DHT22;5167;52.164;10.530;2022-12-29T11:31:56;14.00;18.40
10245;DHT22;5167;52.164;10.530;2022-12-29T11:34:25;14.00;18.80
10245;DHT22;5167;52.164;10.530;2022-12-29T11:36:54;14.00;17.80
10245;DHT22;5167;52.164;10.530;2022-12-29T11:39:30;14.00;17.70
10245;DHT22;5167;52.164;10.530;2022-12-29T11:41:58;14.00;17.50
10245;DHT22;5167;52.164;10.530;2022-12-29T11:44:24;14.10;17.10
10245;DHT22;5167;52.164;10.530;2022-12-29T11:46:52;14.00;16.70
10245;DHT22;5167;52.164;10.530;2022-12-29T11:49:23;14.00;17.30
10245;DHT22;5167;52.164;10.530;2022-12-29T11:51:51;14.10;19.00
10245;DHT22;5167;52.164;10.530;2022-12-29T11:54:33;14.00;19.90
10245;DHT22;5167;52.164;10.530;2022-12-29T11:57:13;14.00;20.30
10245;DHT22;5167;52.164;10.530;2022-12-29T11:59:43;14.10;20.30
10245;DHT22;5167;52.164;10.530;2022-12-29T12:07:46;14.00;22.80
10245;DHT22;5167;52.164;10.530;2022-12-29T12:10:27;13.90;24.30
10245;DHT22;5167;52.164;10.530;2022-12-29T12:15:48;13.80;26.40
10245;DHT22;5167;52.164;10.530;2022-12-29T12:18:24;13.80;28.10
10245;DHT22;5167;52.164;10.530;2022-12-29T12:20:58;13.70;27.60
10245;DHT22;5167;52.164;10.530;2022-12-29T12:26:19;13.30;30.10
10245;DHT22;5167;52.164;10.530;2022-12-29T12:28:57;13.10;31.90
10245;DHT22;5167;52.164;10.530;2022-12-29T12:31:40;12.90;33.70
10245;DHT22;5167;52.164;10.530;2022-12-29T12:34:13;12.80;32.50
10245;DHT22;5167;52.164;10.530;2022-12-29T12:44:49;12.70;30.20
10245;DHT22;5167;52.164;10.530;2022-12-29T12:53:43;12.80;29.10
10245;DHT22;5167;52.164;10.530;2022-12-29T12:56:03;12.70;29.30
10245;DHT22;5167;52.164;10.530;2022-12-29T12:58:53;12.70;29.60
10245;DHT22;5167;52.164;10.530;2022-12-29T13:01:49;12.70;30.20
10245;DHT22;5167;52.164;10.530;2022-12-29T13:04:48;12.70;29.60
10245;DHT22;5167;52.164;10.530;2022-12-29T13:07:57;12.80;28.90
10245;DHT22;5167;52.164;10.530;2022-12-29T13:16:15;12.90;27.90
10245;DHT22;5167;52.164;10.530;2022-12-29T13:19:13;13.00;28.10
10245;DHT22;5167;52.164;10.530;2022-12-29T13:22:01;13.00;27.90
10245;DHT22;5167;52.164;10.530;2022-12-29T13:29:55;13.10;27.60
10245;DHT22;5167;52.164;10.530;2022-12-29T13:38:03;13.10;26.80
10245;DHT22;5167;52.164;10.530;2022-12-29T13:40:32;13.10;26.50
10245;DHT22;5167;52.164;10.530;2022-12-29T13:43:00;13.20;26.20
10245;DHT22;5167;52.164;10.530;2022-12-29T13:45:29;13.10;26.20
10245;DHT22;5167;52.164;10.530;2022-12-29T13:50:44;13.20;26.30
10245;DHT22;5167;52.164;10.530;2022-12-29T13:53:24;13.20;25.90
10245;DHT22;5167;52.164;10.530;2022-12-29T13:55:58;13.30;25.90
10245;DHT22;5167;52.164;10.530;2022-12-29T13:58:56;13.10;24.40
10245;DHT22;5167;52.164;10.530;2022-12-29T14:01:34;13.10;23.90
10245;DHT22;5167;52.164;10.530;2022-12-29T14:04:11;13.10;23.40
10245;DHT22;5167;52.164;10.530;2022-12-29T14:06:37;13.10;22.50
10245;DHT22;5167;52.164;10.530;2022-12-29T14:09:27;13.00;20.80
10245;DHT22;5167;52.164;10.530;2022-12-29T14:11:52;13.10;20.10
10245;DHT22;5167;52.164;10.530;2022-12-29T14:14:24;13.10;19.30
10245;DHT22;5167;52.164;10.530;2022-12-29T14:16:51;13.10;18.90
10245;DHT22;5167;52.164;10.530;2022-12-29T14:19:30;13.10;18.40
10245;DHT22;5167;52.164;10.530;2022-12-29T14:22:04;13.00;17.50
10245;DHT22;5167;52.164;10.530;2022-12-29T14:34:56;13.20;19.70
10245;DHT22;5167;52.164;10.530;2022-12-29T14:37:28;13.00;19.50
10245;DHT22;5167;52.164;10.530;2022-12-29T14:40:15;13.00;19.20
10245;DHT22;5167;52.164;10.530;2022-12-29T14:42:44;12.90;19.20
10245;DHT22;5167;52.164;10.530;2022-12-29T14:47:47;12.90;19.10
10245;DHT22;5167;52.164;10.530;2022-12-29T14:52:52;12.80;19.90
10245;DHT22;5167;52.164;10.530;2022-12-29T14:57:48;12.90;19.90
10245;DHT22;5167;52.164;10.530;2022-12-29T15:00:26;12.80;19.30
10245;DHT22;5167;52.164;10.530;2022-12-29T15:03:16;12.90;18.90
10245;DHT22;5167;52.164;10.530;2022-12-29T15:05:55;13.00;19.00
10245;DHT22;5167;52.164;10.530;2022-12-29T15:08:27;12.80;18.50
10245;DHT22;5167;52.164;10.530;2022-12-29T15:11:04;12.90;18.30
10245;DHT22;5167;52.164;10.530;2022-12-29T15:13:40;12.70;17.10
10245;DHT22;5167;52.164;10.530;2022-12-29T15:16:31;12.90;16.90
10245;DHT22;5167;52.164;10.530;2022-12-29T15:18:57;12.80;16.50
10245;DHT22;5167;52.164;10.530;2022-12-29T15:21:26;12.90;16.30
10245;DHT22;5167;52.164;10.530;2022-12-29T15:23:52;12.90;14.00
10245;DHT22;5167;52.164;10.530;2022-12-29T15:26:18;12.80;14.20
10245;DHT22;5167;52.164;10.530;2022-12-29T15:28:49;12.90;14.50
10245;DHT22;5167;52.164;10.530;2022-12-29T15:31:16;12.90;14.70
10245;DHT22;5167;52.164;10.530;2022-12-29T15:33:45;12.90;15.30
10245;DHT22;5167;52.164;10.530;2022-12-29T15:36:19;12.90;15.10
10245;DHT22;5167;52.164;10.530;2022-12-29T15:38:46;12.90;15.30
10245;DHT22;5167;52.164;10.530;2022-12-29T15:44:14;12.90;15.20
10245;DHT22;5167;52.164;10.530;2022-12-29T15:46:38;13.00;15.90
10245;DHT22;5167;52.164;10.530;2022-12-29T15:49:13;13.00;16.30
10245;DHT22;5167;52.164;10.530;2022-12-29T15:51:39;12.90;16.70
10245;DHT22;5167;52.164;10.530;2022-12-29T15:54:06;13.00;16.80
10245;DHT22;5167;52.164;10.530;2022-12-29T15:56:40;12.90;17.20
10245;DHT22;5167;52.164;10.530;2022-12-29T15:59:23;12.90;17.40
10245;DHT22;5167;52.164;10.530;2022-12-29T16:01:48;12.80;18.00
10245;DHT22;5167;52.164;10.530;2022-12-29T16:04:14;12.80;17.90
10245;DHT22;5167;52.164;10.530;2022-12-29T16:06:53;12.70;17.60
10245;DHT22;5167;52.164;10.530;2022-12-29T16:09:35;12.70;18.30
10245;DHT22;5167;52.164;10.530;2022-12-29T16:12:06;12.60;19.10
10245;DHT22;5167;52.164;10.530;2022-12-29T16:15:11;12.50;19.30
10245;DHT22;5167;52.164;10.530;2022-12-29T16:17:47;12.50;19.90
10245;DHT22;5167;52.164;10.530;2022-12-29T16:22:48;12.50;20.80
10245;DHT22;5167;52.164;10.530;2022-12-29T16:25:23;12.30;21.00
10245;DHT22;5167;52.164;10.530;2022-12-29T16:27:49;12.30;21.70
10245;DHT22;5167;52.164;10.530;2022-12-29T16:30:32;12.20;21.90
10245;DHT22;5167;52.164;10.530;2022-12-29T16:33:00;12.10;22.80
10245;DHT22;5167;52.164;10.530;2022-12-29T16:35:29;12.20;22.90
10245;DHT22;5167;52.164;10.530;2022-12-29T16:38:31;12.10;23.00
10245;DHT22;5167;52.164;10.530;2022-12-29T16:41:01;12.10;25.10
10245;DHT22;5167;52.164;10.530;2022-12-29T16:43:33;12.10;25.30
10245;DHT22;5167;52.164;10.530;2022-12-29T16:48:32;12.10;26.10
10245;DHT22;5167;52.164;10.530;2022-12-29T16:51:23;12.10;25.90
10245;DHT22;5167;52.164;10.530;2022-12-29T16:53:53;12.00;26.70
10245;DHT22;5167;52.164;10.530;2022-12-29T16:56:25;12.00;26.80
10245;DHT22;5167;52.164;10.530;2022-12-29T16:59:02;11.80;26.90
10245;DHT22;5167;52.164;10.530;2022-12-29T17:01:29;11.90;26.80
10245;DHT22;5167;52.164;10.530;2022-12-29T17:03:58;11.80;26.60
10245;DHT22;5167;52.164;10.530;2022-12-29T17:06:24;11.80;26.00
10245;DHT22;5167;52.164;10.530;2022-12-29T17:08:51;11.80;26.20
10245;DHT22;5167;52.164;10.530;2022-12-29T17:14:46;11.80;26.50
10245;DHT22;5167;52.164;10.530;2022-12-29T17:17:42;11.90;26.60
10245;DHT22;5167;52.164;10.530;2022-12-29T17:20:14;11.90;26.40
10245;DHT22;5167;52.164;10.530;2022-12-29T17:22:40;12.00;26.50
10245;DHT22;5167;52.164;10.530;2022-12-29T17:25:10;12.00;26.20
10245;DHT22;5167;52.164;10.530;2022-12-29T17:27:40;12.00;26.50
10245;DHT22;5167;52.164;10.530;2022-12-29T17:30:12;12.00;26.30
10245;DHT22;5167;52.164;10.530;2022-12-29T17:32:39;12.00;26.30
10245;DHT22;5167;52.164;10.530;2022-12-29T17:35:05;12.00;26.20
10245;DHT22;5167;52.164;10.530;2022-12-29T17:37:37;12.00;26.00
10245;DHT22;5167;52.164;10.530;2022-12-29T17:40:05;12.00;26.40
10245;DHT22;5167;52.164;10.530;2022-12-29T17:42:31;12.00;26.40
10245;DHT22;5167;52.164;10.530;2022-12-29T17:44:58;12.00;26.10
10245;DHT22;5167;52.164;10.530;2022-12-29T17:47:25;11.90;26.70
10245;DHT22;5167;52.164;10.530;2022-12-29T17:49:50;11.90;26.90
10245;DHT22;5167;52.164;10.530;2022-12-29T17:52:16;12.00;26.50
10245;DHT22;5167;52.164;10.530;2022-12-29T17:54:46;12.20;26.50
10245;DHT22;5167;52.164;10.530;2022-12-29T17:57:16;11.90;26.20
10245;DHT22;5167;52.164;10.530;2022-12-29T17:59:42;11.90;26.00
10245;DHT22;5167;52.164;10.530;2022-12-29T18:02:24;11.90;25.60
10245;DHT22;5167;52.164;10.530;2022-12-29T18:04:51;11.90;26.00
10245;DHT22;5167;52.164;10.530;2022-12-29T18:07:17;11.90;25.70